sensor_id;sensor_type;location;lat;lon;timestamp;temperature;humidity
33207;DHT22;19565;46.602;11.534;2023-07-31T00:00:12;18.50;99.90
33207;DHT22;19565;46.602;11.534;2023-07-31T00:02:41;18.30;99.90
33207;DHT22;19565;46.602;11.534;2023-07-31T00:05:09;18.10;99.90
33207;DHT22;19565;46.602;11.534;2023-07-31T00:07:37;18.10;99.90
33207;DHT22;19565;46.602;11.534;2023-07-31T00:10:06;18.00;99.90
33207;DHT22;19565;46.602;11.534;2023-07-31T00:12:35;18.00;99.90
33207;DHT22;19565;46.602;11.534;2023-07-31T00:15:04;18.10;99.90
33207;DHT22;19565;46.602;11.534;2023-07-31T00:17:32;18.10;99.90
33207;DHT22;19565;46.602;11.534;2023-07-31T00:20:00;18.20;99.90
33207;DHT22;19565;46.602;11.534;2023-07-31T00:22:28;18.20;99.90
33207;DHT22;19565;46.602;11.534;2023-07-31T00:24:57;18.20;99.90
33207;DHT22;19565;46.602;11.534;2023-07-31T00:27:26;18.20;99.90
33207;DHT22;19565;46.602;11.534;2023-07-31T00:29:55;18.20;99.90
33207;DHT22;19565;46.602;11.534;2023-07-31T00:32:23;18.30;99.90
33207;DHT22;19565;46.602;11.534;2023-07-31T00:34:51;18.40;99.90
33207;DHT22;19565;46.602;11.534;2023-07-31T00:37:19;18.50;99.90
33207;DHT22;19565;46.602;11.534;2023-07-31T00:39:47;18.50;99.90
33207;DHT22;19565;46.602;11.534;2023-07-31T00:42:15;18.40;99.90
33207;DHT22;19565;46.602;11.534;2023-07-31T00:44:44;18.30;99.90
33207;DHT22;19565;46.602;11.534;2023-07-31T00:47:13;18.20;99.90
33207;DHT22;19565;46.602;11.534;2023-07-31T00:49:41;18.10;99.90
33207;DHT22;19565;46.602;11.534;2023-07-31T00:52:10;17.90;99.90
33207;DHT22;19565;46.602;11.534;2023-07-31T00:54:38;17.70;99.90
33207;DHT22;19565;46.602;11.534;2023-07-31T00:57:06;17.60;99.90
33207;DHT22;19565;46.602;11.534;2023-07-31T00:59:35;17.50;99.90
33207;DHT22;19565;46.602;11.534;2023-07-31T01:02:04;17.40;99.90
33207;DHT22;19565;46.602;11.534;2023-07-31T01:04:34;17.50;99.90
33207;DHT22;19565;46.602;11.534;2023-07-31T01:07:08;17.50;99.90
33207;DHT22;19565;46.602;11.534;2023-07-31T01:09:42;17.60;99.90
33207;DHT22;19565;46.602;11.534;2023-07-31T01:12:14;17.70;99.90
33207;DHT22;19565;46.602;11.534;2023-07-31T01:14:51;17.80;99.90
33207;DHT22;19565;46.602;11.534;2023-07-31T01:17:19;17.90;99.90
33207;DHT22;19565;46.602;11.534;2023-07-31T01:19:49;17.90;99.90
33207;DHT22;19565;46.602;11.534;2023-07-31T01:22:33;17.70;99.90
33207;DHT22;19565;46.602;11.534;2023-07-31T01:25:18;17.40;99.90
33207;DHT22;19565;46.602;11.534;2023-07-31T01:27:53;17.30;99.90
33207;DHT22;19565;46.602;11.534;2023-07-31T01:30:26;17.10;99.90
33207;DHT22;19565;46.602;11.534;2023-07-31T01:32:56;17.10;99.90
33207;DHT22;19565;46.602;11.534;2023-07-31T01:35:25;17.10;99.90
33207;DHT22;19565;46.602;11.534;2023-07-31T01:37:53;17.10;99.90
33207;DHT22;19565;46.602;11.534;2023-07-31T01:40:22;17.20;99.90
33207;DHT22;19565;46.602;11.534;2023-07-31T01:42:51;17.30;99.90
33207;DHT22;19565;46.602;11.534;2023-07-31T01:45:19;17.30;99.90
33207;DHT22;19565;46.602;11.534;2023-07-31T01:47:47;17.10;99.90
33207;DHT22;19565;46.602;11.534;2023-07-31T01:50:15;17.00;99.90
33207;DHT22;19565;46.602;11.534;2023-07-31T01:52:43;17.00;99.90
33207;DHT22;19565;46.602;11.534;2023-07-31T01:55:11;16.90;99.90
33207;DHT22;19565;46.602;11.534;2023-07-31T01:57:39;17.00;99.90
33207;DHT22;19565;46.602;11.534;2023-07-31T02:00:10;17.00;99.90
33207;DHT22;19565;46.602;11.534;2023-07-31T02:02:38;17.00;99.90
33207;DHT22;19565;46.602;11.534;2023-07-31T02:05:06;16.80;99.90
33207;DHT22;19565;46.602;11.534;2023-07-31T02:07:34;16.90;99.90
33207;DHT22;19565;46.602;11.534;2023-07-31T02:10:03;16.90;99.90
33207;DHT22;19565;46.602;11.534;2023-07-31T02:12:31;16.90;99.90
33207;DHT22;19565;46.602;11.534;2023-07-31T02:15:00;17.00;99.90
33207;DHT22;19565;46.602;11.534;2023-07-31T02:17:29;17.10;99.90
33207;DHT22;19565;46.602;11.534;2023-07-31T02:19:57;17.10;99.90
33207;DHT22;19565;46.602;11.534;2023-07-31T02:22:25;17.10;99.90
33207;DHT22;19565;46.602;11.534;2023-07-31T02:24:53;17.10;99.90
33207;DHT22;19565;46.602;11.534;2023-07-31T02:27:21;17.20;99.90
33207;DHT22;19565;46.602;11.534;2023-07-31T02:29:54;17.30;99.90
33207;DHT22;19565;46.602;11.534;2023-07-31T02:32:22;17.30;99.90
33207;DHT22;19565;46.602;11.534;2023-07-31T02:34:51;17.20;99.90
33207;DHT22;19565;46.602;11.534;2023-07-31T02:37:19;17.10;99.90
33207;DHT22;19565;46.602;11.534;2023-07-31T02:39:47;16.90;99.90
33207;DHT22;19565;46.602;11.534;2023-07-31T02:42:15;17.00;99.90
33207;DHT22;19565;46.602;11.534;2023-07-31T02:44:43;17.10;99.90
33207;DHT22;19565;46.602;11.534;2023-07-31T02:47:11;17.10;99.90
33207;DHT22;19565;46.602;11.534;2023-07-31T02:49:39;17.10;99.90
33207;DHT22;19565;46.602;11.534;2023-07-31T02:52:09;17.10;99.90
33207;DHT22;19565;46.602;11.534;2023-07-31T02:54:37;17.00;99.90
33207;DHT22;19565;46.602;11.534;2023-07-31T02:57:05;16.90;99.90
33207;DHT22;19565;46.602;11.534;2023-07-31T02:59:34;16.90;99.90
33207;DHT22;19565;46.602;11.534;2023-07-31T03:02:02;17.00;99.90
33207;DHT22;19565;46.602;11.534;2023-07-31T03:04:30;17.10;99.90
33207;DHT22;19565;46.602;11.534;2023-07-31T03:06:58;17.10;99.90
33207;DHT22;19565;46.602;11.534;2023-07-31T03:09:27;17.20;99.90
33207;DHT22;19565;46.602;11.534;2023-07-31T03:11:55;17.10;99.90
33207;DHT22;19565;46.602;11.534;2023-07-31T03:14:23;17.00;99.90
33207;DHT22;19565;46.602;11.534;2023-07-31T03:16:53;17.00;99.90
33207;DHT22;19565;46.602;11.534;2023-07-31T03:19:21;17.00;99.90
33207;DHT22;19565;46.602;11.534;2023-07-31T03:21:49;17.00;99.90
33207;DHT22;19565;46.602;11.534;2023-07-31T03:24:17;16.90;99.90
33207;DHT22;19565;46.602;11.534;2023-07-31T03:26:47;17.00;99.90
33207;DHT22;19565;46.602;11.534;2023-07-31T03:29:15;16.90;99.90
33207;DHT22;19565;46.602;11.534;2023-07-31T03:31:43;17.00;99.90
33207;DHT22;19565;46.602;11.534;2023-07-31T03:34:11;17.20;99.90
33207;DHT22;19565;46.602;11.534;2023-07-31T03:36:39;17.20;99.90
33207;DHT22;19565;46.602;11.534;2023-07-31T03:39:07;17.20;99.90
33207;DHT22;19565;46.602;11.534;2023-07-31T03:41:36;17.30;99.90
33207;DHT22;19565;46.602;11.534;2023-07-31T03:44:05;17.30;99.90
33207;DHT22;19565;46.602;11.534;2023-07-31T03:46:33;17.40;99.90
33207;DHT22;19565;46.602;11.534;2023-07-31T03:49:03;17.40;99.90
33207;DHT22;19565;46.602;11.534;2023-07-31T03:51:31;17.30;99.90
33207;DHT22;19565;46.602;11.534;2023-07-31T03:53:59;17.10;99.90
33207;DHT22;19565;46.602;11.534;2023-07-31T03:56:27;16.80;99.90
33207;DHT22;19565;46.602;11.534;2023-07-31T03:58:55;16.70;99.90
33207;DHT22;19565;46.602;11.534;2023-07-31T04:01:25;16.70;99.90
33207;DHT22;19565;46.602;11.534;2023-07-31T04:03:54;16.80;99.90
33207;DHT22;19565;46.602;11.534;2023-07-31T04:06:22;16.70;99.90
33207;DHT22;19565;46.602;11.534;2023-07-31T04:08:50;16.70;99.90
33207;DHT22;19565;46.602;11.534;2023-07-31T04:11:18;16.70;99.90
33207;DHT22;19565;46.602;11.534;2023-07-31T04:13:46;16.70;99.90
33207;DHT22;19565;46.602;11.534;2023-07-31T04:16:14;16.80;99.90
33207;DHT22;19565;46.602;11.534;2023-07-31T04:18:44;16.80;99.90
33207;DHT22;19565;46.602;11.534;2023-07-31T04:21:11;16.80;99.90
33207;DHT22;19565;46.602;11.534;2023-07-31T04:23:39;16.80;99.90
33207;DHT22;19565;46.602;11.534;2023-07-31T04:26:08;16.70;99.90
33207;DHT22;19565;46.602;11.534;2023-07-31T04:28:36;16.50;99.90
33207;DHT22;19565;46.602;11.534;2023-07-31T04:31:04;16.40;99.90
33207;DHT22;19565;46.602;11.534;2023-07-31T04:33:32;16.40;99.90
33207;DHT22;19565;46.602;11.534;2023-07-31T04:36:01;16.60;99.90
33207;DHT22;19565;46.602;11.534;2023-07-31T04:38:29;16.60;99.90
33207;DHT22;19565;46.602;11.534;2023-07-31T04:40:57;16.60;99.90
33207;DHT22;19565;46.602;11.534;2023-07-31T04:43:25;16.70;99.90
33207;DHT22;19565;46.602;11.534;2023-07-31T04:45:53;16.50;99.90
33207;DHT22;19565;46.602;11.534;2023-07-31T04:48:22;16.40;99.90
33207;DHT22;19565;46.602;11.534;2023-07-31T04:50:50;16.30;99.90
33207;DHT22;19565;46.602;11.534;2023-07-31T04:53:19;16.40;99.90
33207;DHT22;19565;46.602;11.534;2023-07-31T04:55:47;16.50;99.90
33207;DHT22;19565;46.602;11.534;2023-07-31T04:58:15;16.60;99.90
33207;DHT22;19565;46.602;11.534;2023-07-31T05:00:43;16.70;99.90
33207;DHT22;19565;46.602;11.534;2023-07-31T05:03:11;16.60;99.90
33207;DHT22;19565;46.602;11.534;2023-07-31T05:05:39;16.40;99.90
33207;DHT22;19565;46.602;11.534;2023-07-31T05:08:07;16.40;99.90
33207;DHT22;19565;46.602;11.534;2023-07-31T05:10:37;16.40;99.90
33207;DHT22;19565;46.602;11.534;2023-07-31T05:13:05;16.50;99.90
33207;DHT22;19565;46.602;11.534;2023-07-31T05:15:33;16.50;99.90
33207;DHT22;19565;46.602;11.534;2023-07-31T05:18:01;16.60;99.90
33207;DHT22;19565;46.602;11.534;2023-07-31T05:20:29;16.70;99.90
33207;DHT22;19565;46.602;11.534;2023-07-31T05:22:57;16.70;99.90
33207;DHT22;19565;46.602;11.534;2023-07-31T05:25:25;16.60;99.90
33207;DHT22;19565;46.602;11.534;2023-07-31T05:27:54;16.50;99.90
33207;DHT22;19565;46.602;11.534;2023-07-31T05:30:22;16.50;99.90
33207;DHT22;19565;46.602;11.534;2023-07-31T05:32:50;16.60;99.90
33207;DHT22;19565;46.602;11.534;2023-07-31T05:35:18;16.60;99.90
33207;DHT22;19565;46.602;11.534;2023-07-31T05:37:46;16.60;99.90
33207;DHT22;19565;46.602;11.534;2023-07-31T05:40:15;16.50;99.90
33207;DHT22;19565;46.602;11.534;2023-07-31T05:42:43;16.60;99.90
33207;DHT22;19565;46.602;11.534;2023-07-31T05:45:12;16.60;99.90
33207;DHT22;19565;46.602;11.534;2023-07-31T05:47:40;16.70;99.90
33207;DHT22;19565;46.602;11.534;2023-07-31T05:50:09;16.70;99.90
33207;DHT22;19565;46.602;11.534;2023-07-31T05:52:37;16.70;99.90
33207;DHT22;19565;46.602;11.534;2023-07-31T05:55:05;16.70;99.90
33207;DHT22;19565;46.602;11.534;2023-07-31T05:57:34;16.80;99.90
33207;DHT22;19565;46.602;11.534;2023-07-31T06:00:03;16.90;99.90
33207;DHT22;19565;46.602;11.534;2023-07-31T06:02:33;17.00;99.90
33207;DHT22;19565;46.602;11.534;2023-07-31T06:05:04;17.10;99.90
33207;DHT22;19565;46.602;11.534;2023-07-31T06:07:33;17.10;99.90
33207;DHT22;19565;46.602;11.534;2023-07-31T06:10:02;17.20;99.90
33207;DHT22;19565;46.602;11.534;2023-07-31T06:12:32;17.20;99.90
33207;DHT22;19565;46.602;11.534;2023-07-31T06:15:01;17.20;99.90
33207;DHT22;19565;46.602;11.534;2023-07-31T06:17:30;17.10;99.90
33207;DHT22;19565;46.602;11.534;2023-07-31T06:19:59;17.20;99.90
33207;DHT22;19565;46.602;11.534;2023-07-31T06:22:27;17.30;99.90
33207;DHT22;19565;46.602;11.534;2023-07-31T06:24:55;17.20;99.90
33207;DHT22;19565;46.602;11.534;2023-07-31T06:27:24;17.40;99.90
33207;DHT22;19565;46.602;11.534;2023-07-31T06:29:52;17.40;99.90
33207;DHT22;19565;46.602;11.534;2023-07-31T06:32:20;17.50;99.90
33207;DHT22;19565;46.602;11.534;2023-07-31T06:34:48;17.60;99.90
33207;DHT22;19565;46.602;11.534;2023-07-31T06:37:17;17.80;99.90
33207;DHT22;19565;46.602;11.534;2023-07-31T06:39:46;17.90;99.90
33207;DHT22;19565;46.602;11.534;2023-07-31T06:42:14;17.90;99.90
33207;DHT22;19565;46.602;11.534;2023-07-31T06:44:42;18.00;99.90
33207;DHT22;19565;46.602;11.534;2023-07-31T06:47:10;18.00;99.90
33207;DHT22;19565;46.602;11.534;2023-07-31T06:49:38;18.10;99.90
33207;DHT22;19565;46.602;11.534;2023-07-31T06:52:06;18.10;99.90
33207;DHT22;19565;46.602;11.534;2023-07-31T06:54:36;18.20;99.90
33207;DHT22;19565;46.602;11.534;2023-07-31T06:57:04;18.30;99.90
33207;DHT22;19565;46.602;11.534;2023-07-31T06:59:32;18.30;99.90
33207;DHT22;19565;46.602;11.534;2023-07-31T07:02:00;18.30;99.90
33207;DHT22;19565;46.602;11.534;2023-07-31T07:04:32;18.40;99.90
33207;DHT22;19565;46.602;11.534;2023-07-31T07:07:00;18.50;99.90
33207;DHT22;19565;46.602;11.534;2023-07-31T07:09:28;18.50;99.90
33207;DHT22;19565;46.602;11.534;2023-07-31T07:11:58;18.60;99.90
33207;DHT22;19565;46.602;11.534;2023-07-31T07:14:26;18.70;99.90
33207;DHT22;19565;46.602;11.534;2023-07-31T07:16:54;18.70;99.90
33207;DHT22;19565;46.602;11.534;2023-07-31T07:19:22;18.70;99.90
33207;DHT22;19565;46.602;11.534;2023-07-31T07:21:50;18.70;99.90
33207;DHT22;19565;46.602;11.534;2023-07-31T07:24:18;18.90;99.90
33207;DHT22;19565;46.602;11.534;2023-07-31T07:26:46;19.00;99.90
33207;DHT22;19565;46.602;11.534;2023-07-31T07:29:16;19.10;99.90
33207;DHT22;19565;46.602;11.534;2023-07-31T07:31:44;19.20;99.90
33207;DHT22;19565;46.602;11.534;2023-07-31T07:34:12;19.30;99.90
33207;DHT22;19565;46.602;11.534;2023-07-31T07:36:40;19.30;99.90
33207;DHT22;19565;46.602;11.534;2023-07-31T07:39:09;19.40;99.90
33207;DHT22;19565;46.602;11.534;2023-07-31T07:41:37;19.50;99.90
33207;DHT22;19565;46.602;11.534;2023-07-31T07:44:06;19.50;99.90
33207;DHT22;19565;46.602;11.534;2023-07-31T07:46:35;19.50;99.90
33207;DHT22;19565;46.602;11.534;2023-07-31T07:49:04;19.60;99.90
33207;DHT22;19565;46.602;11.534;2023-07-31T07:51:32;19.60;99.90
33207;DHT22;19565;46.602;11.534;2023-07-31T07:54:01;19.50;99.90
33207;DHT22;19565;46.602;11.534;2023-07-31T07:56:29;19.60;99.90
33207;DHT22;19565;46.602;11.534;2023-07-31T07:58:57;19.60;99.90
33207;DHT22;19565;46.602;11.534;2023-07-31T08:01:25;19.70;99.90
33207;DHT22;19565;46.602;11.534;2023-07-31T08:03:54;19.80;99.90
33207;DHT22;19565;46.602;11.534;2023-07-31T08:06:22;19.90;99.90
33207;DHT22;19565;46.602;11.534;2023-07-31T08:08:51;20.00;99.90
33207;DHT22;19565;46.602;11.534;2023-07-31T08:11:19;20.10;99.90
33207;DHT22;19565;46.602;11.534;2023-07-31T08:13:47;20.20;99.90
33207;DHT22;19565;46.602;11.534;2023-07-31T08:16:15;20.20;99.90
33207;DHT22;19565;46.602;11.534;2023-07-31T08:18:43;20.10;99.90
33207;DHT22;19565;46.602;11.534;2023-07-31T08:21:13;20.20;99.90
33207;DHT22;19565;46.602;11.534;2023-07-31T08:23:41;20.30;99.90
33207;DHT22;19565;46.602;11.534;2023-07-31T08:26:14;20.30;99.90
33207;DHT22;19565;46.602;11.534;2023-07-31T08:28:42;20.40;99.90
33207;DHT22;19565;46.602;11.534;2023-07-31T08:31:11;20.40;99.90
33207;DHT22;19565;46.602;11.534;2023-07-31T08:33:39;20.50;99.90
33207;DHT22;19565;46.602;11.534;2023-07-31T08:36:07;20.50;99.90
33207;DHT22;19565;46.602;11.534;2023-07-31T08:38:37;20.60;99.90
33207;DHT22;19565;46.602;11.534;2023-07-31T08:41:05;20.60;99.90
33207;DHT22;19565;46.602;11.534;2023-07-31T08:43:33;20.70;99.90
33207;DHT22;19565;46.602;11.534;2023-07-31T08:46:02;20.80;99.90
33207;DHT22;19565;46.602;11.534;2023-07-31T08:48:31;20.90;99.90
33207;DHT22;19565;46.602;11.534;2023-07-31T08:51:00;20.90;99.90
33207;DHT22;19565;46.602;11.534;2023-07-31T08:53:28;20.90;99.00
33207;DHT22;19565;46.602;11.534;2023-07-31T08:55:58;21.00;99.10
33207;DHT22;19565;46.602;11.534;2023-07-31T08:58:30;21.10;99.40
33207;DHT22;19565;46.602;11.534;2023-07-31T09:01:01;21.10;98.90
33207;DHT22;19565;46.602;11.534;2023-07-31T09:03:33;21.20;99.10
33207;DHT22;19565;46.602;11.534;2023-07-31T09:06:02;21.20;99.20
33207;DHT22;19565;46.602;11.534;2023-07-31T09:08:33;21.30;99.00
33207;DHT22;19565;46.602;11.534;2023-07-31T09:11:03;21.30;98.90
33207;DHT22;19565;46.602;11.534;2023-07-31T09:13:33;21.30;99.00
33207;DHT22;19565;46.602;11.534;2023-07-31T09:16:01;21.40;99.10
33207;DHT22;19565;46.602;11.534;2023-07-31T09:18:30;21.50;98.60
33207;DHT22;19565;46.602;11.534;2023-07-31T09:21:01;21.50;98.20
33207;DHT22;19565;46.602;11.534;2023-07-31T09:23:40;21.60;97.80
33207;DHT22;19565;46.602;11.534;2023-07-31T09:26:10;21.70;98.00
33207;DHT22;19565;46.602;11.534;2023-07-31T09:28:38;21.70;98.90
33207;DHT22;19565;46.602;11.534;2023-07-31T09:31:06;21.70;99.40
33207;DHT22;19565;46.602;11.534;2023-07-31T09:33:54;21.70;99.10
33207;DHT22;19565;46.602;11.534;2023-07-31T09:36:22;21.70;99.10
33207;DHT22;19565;46.602;11.534;2023-07-31T09:38:50;21.70;98.60
33207;DHT22;19565;46.602;11.534;2023-07-31T09:41:20;21.60;97.70
33207;DHT22;19565;46.602;11.534;2023-07-31T09:43:53;21.60;98.50
33207;DHT22;19565;46.602;11.534;2023-07-31T09:46:21;21.60;98.70
33207;DHT22;19565;46.602;11.534;2023-07-31T09:48:49;21.70;98.30
33207;DHT22;19565;46.602;11.534;2023-07-31T09:51:26;21.70;97.30
33207;DHT22;19565;46.602;11.534;2023-07-31T09:53:54;21.70;96.90
33207;DHT22;19565;46.602;11.534;2023-07-31T09:56:24;21.80;96.80
33207;DHT22;19565;46.602;11.534;2023-07-31T09:58:54;21.90;96.90
33207;DHT22;19565;46.602;11.534;2023-07-31T10:01:23;21.90;97.20
33207;DHT22;19565;46.602;11.534;2023-07-31T10:03:51;22.00;96.80
33207;DHT22;19565;46.602;11.534;2023-07-31T10:06:20;22.10;96.50
33207;DHT22;19565;46.602;11.534;2023-07-31T10:08:51;22.20;95.60
33207;DHT22;19565;46.602;11.534;2023-07-31T10:11:22;22.30;95.50
33207;DHT22;19565;46.602;11.534;2023-07-31T10:13:54;22.40;94.80
33207;DHT22;19565;46.602;11.534;2023-07-31T10:16:23;22.50;94.20
33207;DHT22;19565;46.602;11.534;2023-07-31T10:18:51;22.60;93.90
33207;DHT22;19565;46.602;11.534;2023-07-31T10:21:21;22.70;93.00
33207;DHT22;19565;46.602;11.534;2023-07-31T10:23:49;22.80;92.50
33207;DHT22;19565;46.602;11.534;2023-07-31T10:26:19;22.90;91.10
33207;DHT22;19565;46.602;11.534;2023-07-31T10:28:50;23.00;92.10
33207;DHT22;19565;46.602;11.534;2023-07-31T10:31:21;23.10;92.50
33207;DHT22;19565;46.602;11.534;2023-07-31T10:33:49;23.30;92.60
33207;DHT22;19565;46.602;11.534;2023-07-31T10:36:18;23.30;92.80
33207;DHT22;19565;46.602;11.534;2023-07-31T10:38:48;23.40;92.10
33207;DHT22;19565;46.602;11.534;2023-07-31T10:41:17;23.40;92.10
33207;DHT22;19565;46.602;11.534;2023-07-31T10:43:46;23.50;91.80
33207;DHT22;19565;46.602;11.534;2023-07-31T10:46:16;23.60;91.90
33207;DHT22;19565;46.602;11.534;2023-07-31T10:48:44;23.70;92.00
33207;DHT22;19565;46.602;11.534;2023-07-31T10:51:12;23.70;92.30
33207;DHT22;19565;46.602;11.534;2023-07-31T10:53:40;23.80;92.10
33207;DHT22;19565;46.602;11.534;2023-07-31T10:56:09;23.80;91.50
33207;DHT22;19565;46.602;11.534;2023-07-31T10:58:39;23.90;92.30
33207;DHT22;19565;46.602;11.534;2023-07-31T11:01:09;23.80;92.20
33207;DHT22;19565;46.602;11.534;2023-07-31T11:03:46;23.80;92.30
33207;DHT22;19565;46.602;11.534;2023-07-31T11:06:16;23.80;91.90
33207;DHT22;19565;46.602;11.534;2023-07-31T11:08:47;23.90;92.40
33207;DHT22;19565;46.602;11.534;2023-07-31T11:11:17;23.80;91.30
33207;DHT22;19565;46.602;11.534;2023-07-31T11:13:47;23.80;89.90
33207;DHT22;19565;46.602;11.534;2023-07-31T11:16:18;23.80;90.40
33207;DHT22;19565;46.602;11.534;2023-07-31T11:18:48;23.90;90.50
33207;DHT22;19565;46.602;11.534;2023-07-31T11:21:19;23.90;91.80
33207;DHT22;19565;46.602;11.534;2023-07-31T11:23:48;23.90;91.20
33207;DHT22;19565;46.602;11.534;2023-07-31T11:26:17;23.90;90.90
33207;DHT22;19565;46.602;11.534;2023-07-31T11:28:47;23.90;90.50
33207;DHT22;19565;46.602;11.534;2023-07-31T11:31:15;24.00;91.20
33207;DHT22;19565;46.602;11.534;2023-07-31T11:33:44;24.10;91.10
33207;DHT22;19565;46.602;11.534;2023-07-31T11:36:16;24.10;90.30
33207;DHT22;19565;46.602;11.534;2023-07-31T11:38:45;24.20;89.90
33207;DHT22;19565;46.602;11.534;2023-07-31T11:41:14;24.30;90.70
33207;DHT22;19565;46.602;11.534;2023-07-31T11:43:43;24.30;90.40
33207;DHT22;19565;46.602;11.534;2023-07-31T11:46:11;24.40;90.20
33207;DHT22;19565;46.602;11.534;2023-07-31T11:48:41;24.40;89.80
33207;DHT22;19565;46.602;11.534;2023-07-31T11:51:11;24.50;90.50
33207;DHT22;19565;46.602;11.534;2023-07-31T11:53:44;24.50;90.60
33207;DHT22;19565;46.602;11.534;2023-07-31T11:56:16;24.60;90.20
33207;DHT22;19565;46.602;11.534;2023-07-31T11:58:46;24.50;90.40
33207;DHT22;19565;46.602;11.534;2023-07-31T12:01:16;24.60;90.80
33207;DHT22;19565;46.602;11.534;2023-07-31T12:03:45;24.60;91.40
33207;DHT22;19565;46.602;11.534;2023-07-31T12:06:14;24.60;90.90
33207;DHT22;19565;46.602;11.534;2023-07-31T12:08:43;24.60;91.10
33207;DHT22;19565;46.602;11.534;2023-07-31T12:11:12;24.60;91.50
33207;DHT22;19565;46.602;11.534;2023-07-31T12:13:41;24.70;92.10
33207;DHT22;19565;46.602;11.534;2023-07-31T12:16:09;24.80;92.00
33207;DHT22;19565;46.602;11.534;2023-07-31T12:18:38;24.80;91.00
33207;DHT22;19565;46.602;11.534;2023-07-31T12:21:08;24.90;91.30
33207;DHT22;19565;46.602;11.534;2023-07-31T12:23:38;25.00;91.30
33207;DHT22;19565;46.602;11.534;2023-07-31T12:26:11;25.10;91.40
33207;DHT22;19565;46.602;11.534;2023-07-31T12:28:42;25.10;92.40
33207;DHT22;19565;46.602;11.534;2023-07-31T12:31:11;25.20;92.50
33207;DHT22;19565;46.602;11.534;2023-07-31T12:33:40;25.20;92.40
33207;DHT22;19565;46.602;11.534;2023-07-31T12:36:10;25.20;91.70
33207;DHT22;19565;46.602;11.534;2023-07-31T12:38:39;25.30;91.60
33207;DHT22;19565;46.602;11.534;2023-07-31T12:41:07;25.30;92.60
33207;DHT22;19565;46.602;11.534;2023-07-31T12:43:38;25.30;92.60
33207;DHT22;19565;46.602;11.534;2023-07-31T12:46:07;25.30;92.30
33207;DHT22;19565;46.602;11.534;2023-07-31T12:48:36;25.40;92.00
33207;DHT22;19565;46.602;11.534;2023-07-31T12:51:05;25.40;92.60
33207;DHT22;19565;46.602;11.534;2023-07-31T12:53:34;25.50;92.60
33207;DHT22;19565;46.602;11.534;2023-07-31T12:56:03;25.50;92.20
33207;DHT22;19565;46.602;11.534;2023-07-31T12:58:31;25.40;92.00
33207;DHT22;19565;46.602;11.534;2023-07-31T13:01:01;25.50;92.20
33207;DHT22;19565;46.602;11.534;2023-07-31T13:03:29;25.50;92.40
33207;DHT22;19565;46.602;11.534;2023-07-31T13:05:57;25.50;92.30
33207;DHT22;19565;46.602;11.534;2023-07-31T13:08:25;25.60;91.90
33207;DHT22;19565;46.602;11.534;2023-07-31T13:10:53;25.60;91.90
33207;DHT22;19565;46.602;11.534;2023-07-31T13:13:21;25.70;92.10
33207;DHT22;19565;46.602;11.534;2023-07-31T13:15:50;25.80;91.80
33207;DHT22;19565;46.602;11.534;2023-07-31T13:18:19;25.90;91.30
33207;DHT22;19565;46.602;11.534;2023-07-31T13:20:47;26.00;91.40
33207;DHT22;19565;46.602;11.534;2023-07-31T13:23:15;26.00;91.20
33207;DHT22;19565;46.602;11.534;2023-07-31T13:25:43;26.00;91.10
33207;DHT22;19565;46.602;11.534;2023-07-31T13:28:11;26.10;90.80
33207;DHT22;19565;46.602;11.534;2023-07-31T13:30:39;26.20;91.30
33207;DHT22;19565;46.602;11.534;2023-07-31T13:33:07;26.20;91.30
33207;DHT22;19565;46.602;11.534;2023-07-31T13:35:52;26.30;91.50
33207;DHT22;19565;46.602;11.534;2023-07-31T13:38:20;26.40;91.30
33207;DHT22;19565;46.602;11.534;2023-07-31T13:40:48;26.50;91.20
33207;DHT22;19565;46.602;11.534;2023-07-31T13:43:16;26.40;90.40
33207;DHT22;19565;46.602;11.534;2023-07-31T13:45:44;26.40;91.10
33207;DHT22;19565;46.602;11.534;2023-07-31T13:48:12;26.50;90.10
33207;DHT22;19565;46.602;11.534;2023-07-31T13:50:40;26.60;89.70
33207;DHT22;19565;46.602;11.534;2023-07-31T13:53:10;26.60;89.30
33207;DHT22;19565;46.602;11.534;2023-07-31T13:55:38;26.80;90.00
33207;DHT22;19565;46.602;11.534;2023-07-31T13:58:06;26.90;90.00
33207;DHT22;19565;46.602;11.534;2023-07-31T14:00:34;27.00;90.00
33207;DHT22;19565;46.602;11.534;2023-07-31T14:03:03;26.90;89.00
33207;DHT22;19565;46.602;11.534;2023-07-31T14:05:31;26.90;89.00
33207;DHT22;19565;46.602;11.534;2023-07-31T14:07:59;26.90;89.00
33207;DHT22;19565;46.602;11.534;2023-07-31T14:10:28;26.90;90.20
33207;DHT22;19565;46.602;11.534;2023-07-31T14:12:56;26.90;90.10
33207;DHT22;19565;46.602;11.534;2023-07-31T14:15:24;26.90;89.40
33207;DHT22;19565;46.602;11.534;2023-07-31T14:17:53;26.90;89.90
33207;DHT22;19565;46.602;11.534;2023-07-31T14:20:24;26.80;89.30
33207;DHT22;19565;46.602;11.534;2023-07-31T14:22:52;26.80;89.80
33207;DHT22;19565;46.602;11.534;2023-07-31T14:25:20;26.70;90.20
33207;DHT22;19565;46.602;11.534;2023-07-31T14:27:49;26.70;90.60
33207;DHT22;19565;46.602;11.534;2023-07-31T14:30:17;26.70;90.30
33207;DHT22;19565;46.602;11.534;2023-07-31T14:32:46;26.60;90.30
33207;DHT22;19565;46.602;11.534;2023-07-31T14:35:14;26.60;90.40
33207;DHT22;19565;46.602;11.534;2023-07-31T14:37:44;26.60;91.10
33207;DHT22;19565;46.602;11.534;2023-07-31T14:40:13;26.50;92.60
33207;DHT22;19565;46.602;11.534;2023-07-31T14:42:41;26.50;92.40
33207;DHT22;19565;46.602;11.534;2023-07-31T14:45:11;26.40;91.70
33207;DHT22;19565;46.602;11.534;2023-07-31T14:47:39;26.40;91.50
33207;DHT22;19565;46.602;11.534;2023-07-31T14:50:07;26.40;91.20
33207;DHT22;19565;46.602;11.534;2023-07-31T14:52:36;26.30;92.70
33207;DHT22;19565;46.602;11.534;2023-07-31T14:55:04;26.30;92.50
33207;DHT22;19565;46.602;11.534;2023-07-31T14:57:33;26.20;92.80
33207;DHT22;19565;46.602;11.534;2023-07-31T15:00:02;26.20;92.20
33207;DHT22;19565;46.602;11.534;2023-07-31T15:02:37;26.20;90.20
33207;DHT22;19565;46.602;11.534;2023-07-31T15:05:07;26.30;88.40
33207;DHT22;19565;46.602;11.534;2023-07-31T15:07:35;26.40;90.20
33207;DHT22;19565;46.602;11.534;2023-07-31T15:10:04;26.30;91.30
33207;DHT22;19565;46.602;11.534;2023-07-31T15:12:32;26.30;90.90
33207;DHT22;19565;46.602;11.534;2023-07-31T15:15:00;26.30;91.70
33207;DHT22;19565;46.602;11.534;2023-07-31T15:17:28;26.40;91.80
33207;DHT22;19565;46.602;11.534;2023-07-31T15:19:58;26.30;92.10
33207;DHT22;19565;46.602;11.534;2023-07-31T15:22:29;26.60;90.90
33207;DHT22;19565;46.602;11.534;2023-07-31T15:24:58;27.10;90.70